Catlett, Virginia
Current Conditions -  °F | °C
As of 7:15 AM on Sunday 25 Jan 2015 (Local Time) from KHWY Reporting Station
Scattered Clouds Scattered Clouds  
Wind Chill: 33°   Ceiling: Unl
Heat Index: 33°   Visibility: 10mi
Dew Point: 32°   Wind: 0mph
Humidity: 96%   Direction: NA
Pressure: 29.82"   Gusts: NA
Location:  38.65°N, 77.64°W
Report Text: KHWY 251215Z AUTO 00000KT 10SM SCT049 00/00 A2982 RMK AO2 T00031002
Loading
Personal Weather Stations






























Interactive Weather Map New forecast layout! Learn more

10-Day Weather Forecast

Advertisements
Track Severe Weather on mobile